createdAt,value
2018-05-02T00:00:49.841Z,74.90
2018-05-02T00:03:17.329Z,74.70
2018-05-02T00:05:45.599Z,74.60
2018-05-02T00:08:13.081Z,74.50
2018-05-02T00:10:40.574Z,74.80
2018-05-02T00:13:08.057Z,75.00
2018-05-02T00:15:35.553Z,74.80
2018-05-02T00:18:03.106Z,75.30
2018-05-02T00:20:30.553Z,75.20
2018-05-02T00:22:58.042Z,75.70
2018-05-02T00:25:25.537Z,75.70
2018-05-02T00:27:53.019Z,75.40
2018-05-02T00:30:20.509Z,76.10
2018-05-02T00:32:47.997Z,76.10
2018-05-02T00:35:15.499Z,76.10
2018-05-02T00:37:42.982Z,75.80
2018-05-02T00:40:10.484Z,75.20
2018-05-02T00:42:37.961Z,75.20
2018-05-02T00:45:05.440Z,75.40
2018-05-02T00:47:32.937Z,75.90
2018-05-02T00:50:00.421Z,76.00
2018-05-02T00:52:27.937Z,77.40
2018-05-02T00:54:55.425Z,77.20
2018-05-02T00:57:22.925Z,77.30
2018-05-02T00:59:50.405Z,76.80
2018-05-02T01:02:17.908Z,76.50
2018-05-02T01:04:45.388Z,76.20
2018-05-02T01:07:12.887Z,75.60
2018-05-02T01:09:40.365Z,75.30
2018-05-02T01:12:07.862Z,75.00
2018-05-02T01:14:36.104Z,76.10
2018-05-02T01:17:03.600Z,76.00
2018-05-02T01:19:31.129Z,77.10
2018-05-02T01:21:58.626Z,77.30
2018-05-02T01:24:26.113Z,77.10
2018-05-02T01:26:55.204Z,77.40
2018-05-02T01:29:22.641Z,77.40
2018-05-02T01:31:50.129Z,77.40
2018-05-02T01:34:17.626Z,77.20
2018-05-02T01:36:45.107Z,77.20
2018-05-02T01:39:12.615Z,77.40
2018-05-02T01:41:40.123Z,77.60
2018-05-02T01:44:07.630Z,77.90
2018-05-02T01:46:35.113Z,78.10
2018-05-02T01:49:14.458Z,77.60
2018-05-02T01:51:41.940Z,77.80
2018-05-02T01:54:09.445Z,78.60
2018-05-02T01:56:36.927Z,79.10
2018-05-02T01:59:04.422Z,78.70
2018-05-02T02:01:31.896Z,77.50
2018-05-02T02:03:59.411Z,76.60
2018-05-02T02:06:26.893Z,75.80
2018-05-02T02:08:54.393Z,75.30
2018-05-02T02:11:21.883Z,75.70
2018-05-02T02:13:49.376Z,75.50
2018-05-02T02:16:16.853Z,75.40
2018-05-02T02:18:44.356Z,75.70
2018-05-02T02:21:11.842Z,76.90
2018-05-02T02:23:39.353Z,77.20
2018-05-02T02:26:06.845Z,77.40
2018-05-02T02:28:34.345Z,77.50
2018-05-02T02:31:01.841Z,76.70
2018-05-02T02:33:29.349Z,76.20
2018-05-02T02:35:56.840Z,75.20
2018-05-02T02:38:25.111Z,74.50
2018-05-02T02:40:52.601Z,74.40
2018-05-02T02:43:20.869Z,74.60
2018-05-02T02:45:48.364Z,74.50
2018-05-02T02:48:15.877Z,74.70
2018-05-02T02:50:43.364Z,74.70
2018-05-02T02:53:10.869Z,75.10
2018-05-02T02:55:38.363Z,75.60
2018-05-02T02:58:05.877Z,75.80
2018-05-02T03:00:33.377Z,75.60
2018-05-02T03:03:00.887Z,75.30
2018-05-02T03:05:28.380Z,75.10
2018-05-02T03:07:55.869Z,75.00
2018-05-02T03:10:23.372Z,74.90
2018-05-02T03:12:50.851Z,74.40
2018-05-02T03:15:18.358Z,74.60
2018-05-02T03:17:45.845Z,74.00
2018-05-02T03:20:13.342Z,73.70
2018-05-02T03:22:40.822Z,73.60
2018-05-02T03:25:08.322Z,73.60
2018-05-02T03:27:35.809Z,73.10
2018-05-02T03:30:03.319Z,73.30
2018-05-02T03:32:30.809Z,73.40
2018-05-02T03:34:58.314Z,73.50
2018-05-02T03:37:25.793Z,73.80
2018-05-02T03:39:53.293Z,73.90
2018-05-02T03:42:21.714Z,74.10
2018-05-02T03:44:49.208Z,74.60
2018-05-02T03:47:16.687Z,74.50
2018-05-02T03:49:44.960Z,74.30
2018-05-02T03:52:12.490Z,74.30
2018-05-02T03:54:39.997Z,74.20
2018-05-02T03:57:07.477Z,73.90
2018-05-02T03:59:46.777Z,73.80
2018-05-02T04:02:26.094Z,73.40
2018-05-02T04:05:05.385Z,73.40
2018-05-02T04:07:32.878Z,73.10
2018-05-02T04:10:00.391Z,72.80
2018-05-02T04:12:27.885Z,72.70
2018-05-02T04:14:55.380Z,72.00
2018-05-02T04:17:23.629Z,70.60
2018-05-02T04:19:51.128Z,70.50
2018-05-02T04:22:18.617Z,70.40
2018-05-02T04:24:46.125Z,70.10
2018-05-02T04:27:13.612Z,70.20
2018-05-02T04:29:41.122Z,70.50
2018-05-02T04:32:08.614Z,70.30
2018-05-02T04:34:36.128Z,69.70
2018-05-02T04:37:03.614Z,69.80
2018-05-02T04:39:31.122Z,70.50
2018-05-02T04:41:58.621Z,70.50
2018-05-02T04:44:26.121Z,71.00
2018-05-02T04:46:53.620Z,71.00
2018-05-02T04:49:21.117Z,71.00
2018-05-02T04:51:49.369Z,71.40
2018-05-02T04:54:16.864Z,71.30
2018-05-02T04:56:44.361Z,71.00
2018-05-02T04:59:11.880Z,71.10
2018-05-02T05:01:39.365Z,71.00
2018-05-02T05:04:06.860Z,70.60
2018-05-02T05:06:34.411Z,70.90
2018-05-02T05:09:01.856Z,70.50
2018-05-02T05:11:29.375Z,70.70
2018-05-02T05:13:56.853Z,70.90
2018-05-02T05:16:24.345Z,71.30
2018-05-02T05:18:51.891Z,71.60
2018-05-02T05:21:19.396Z,72.00
2018-05-02T05:23:46.880Z,71.30
2018-05-02T05:26:14.388Z,70.90
2018-05-02T05:28:41.885Z,71.70
2018-05-02T05:31:10.154Z,70.40
2018-05-02T05:33:37.638Z,70.30
2018-05-02T05:36:05.152Z,69.80
2018-05-02T05:38:32.638Z,69.80
2018-05-02T05:41:00.155Z,69.40
2018-05-02T05:43:27.646Z,69.10
2018-05-02T05:45:55.165Z,69.30
2018-05-02T05:48:23.409Z,69.10
2018-05-02T05:50:50.913Z,69.20
2018-05-02T05:53:18.393Z,69.00
2018-05-02T05:55:45.892Z,69.50
2018-05-02T05:58:13.377Z,69.60
2018-05-02T06:00:40.886Z,75.40
2018-05-02T06:03:08.377Z,71.50
2018-05-02T06:05:36.600Z,70.50
2018-05-02T06:08:04.087Z,69.90
2018-05-02T06:10:31.594Z,70.20
2018-05-02T06:12:59.077Z,70.10
2018-05-02T06:15:26.578Z,70.10
2018-05-02T06:17:54.896Z,70.50
2018-05-02T06:20:22.398Z,70.70
2018-05-02T06:22:49.877Z,70.60
2018-05-02T06:25:17.389Z,70.70
2018-05-02T06:27:44.881Z,70.60
2018-05-02T06:30:12.388Z,70.30
2018-05-02T06:32:39.873Z,70.40
2018-05-02T06:35:07.378Z,70.30
2018-05-02T06:37:34.898Z,70.40
2018-05-02T06:40:02.366Z,70.00
2018-05-02T06:42:29.873Z,70.30
2018-05-02T06:44:57.369Z,70.00
2018-05-02T06:47:24.873Z,70.20
2018-05-02T06:49:52.357Z,70.10
2018-05-02T06:52:19.857Z,70.10
2018-05-02T06:54:47.421Z,69.80
2018-05-02T06:57:14.853Z,69.60
2018-05-02T06:59:42.341Z,69.60
2018-05-02T07:02:09.841Z,69.80
2018-05-02T07:04:37.328Z,69.90
2018-05-02T07:07:04.846Z,69.20
2018-05-02T07:09:32.337Z,69.40
2018-05-02T07:11:59.837Z,69.20
2018-05-02T07:14:27.320Z,69.00
2018-05-02T07:16:54.837Z,68.80
2018-05-02T07:19:22.324Z,68.80
2018-05-02T07:21:49.833Z,69.10
2018-05-02T07:24:17.319Z,68.90
2018-05-02T07:26:44.829Z,69.00
2018-05-02T07:29:12.322Z,69.20
2018-05-02T07:31:39.821Z,69.10
2018-05-02T07:34:07.325Z,68.60
2018-05-02T07:36:34.836Z,68.70
2018-05-02T07:39:02.318Z,68.40
2018-05-02T07:41:29.821Z,68.60
2018-05-02T07:43:57.301Z,68.70
2018-05-02T07:46:24.801Z,68.30
2018-05-02T07:48:52.288Z,68.60
2018-05-02T07:51:19.788Z,68.70
2018-05-02T07:53:47.273Z,68.30
2018-05-02T07:56:14.769Z,68.50
2018-05-02T07:58:42.261Z,68.10
2018-05-02T08:01:09.763Z,67.50
2018-05-02T08:03:37.244Z,68.40
2018-05-02T08:06:04.737Z,67.50
2018-05-02T08:08:32.225Z,67.40
2018-05-02T08:10:59.747Z,67.10
2018-05-02T08:13:27.223Z,67.40
2018-05-02T08:15:54.787Z,66.20
2018-05-02T08:18:22.238Z,66.20
2018-05-02T08:20:49.721Z,67.80
2018-05-02T08:23:17.227Z,68.00
2018-05-02T08:25:44.709Z,66.70
2018-05-02T08:28:12.218Z,67.30
2018-05-02T08:30:39.697Z,65.30
2018-05-02T08:33:07.962Z,65.30
2018-05-02T08:35:35.442Z,65.30
2018-05-02T08:38:02.946Z,65.10
2018-05-02T08:40:30.429Z,64.60
2018-05-02T08:42:57.929Z,63.40
2018-05-02T08:45:25.417Z,63.60
2018-05-02T08:47:58.717Z,61.90
2018-05-02T08:50:26.225Z,62.20
2018-05-02T08:52:53.728Z,60.90
2018-05-02T08:55:21.209Z,61.00
2018-05-02T08:57:48.725Z,60.20
2018-05-02T09:00:16.210Z,61.30
2018-05-02T09:02:43.715Z,59.80
2018-05-02T09:05:11.276Z,59.20
2018-05-02T09:07:38.742Z,59.20
2018-05-02T09:10:06.230Z,58.60
2018-05-02T09:12:33.725Z,57.80
2018-05-02T09:15:01.230Z,58.40
2018-05-02T09:17:28.718Z,57.30
2018-05-02T09:19:56.231Z,56.60
2018-05-02T09:22:23.718Z,56.80
2018-05-02T09:24:51.229Z,56.20
2018-05-02T09:27:18.721Z,57.40
2018-05-02T09:29:46.232Z,56.70
2018-05-02T09:32:13.721Z,57.80
2018-05-02T09:34:41.222Z,55.90
2018-05-02T09:37:08.701Z,55.90
2018-05-02T09:39:36.204Z,55.80
2018-05-02T09:42:03.689Z,56.20
2018-05-02T09:44:31.190Z,55.60
2018-05-02T09:46:58.689Z,55.60
2018-05-02T09:49:26.197Z,55.10
2018-05-02T09:51:53.686Z,54.00
2018-05-02T09:54:21.189Z,54.40
2018-05-02T09:56:49.446Z,54.10
2018-05-02T09:59:16.954Z,54.10
2018-05-02T10:01:44.441Z,54.30
2018-05-02T10:04:11.954Z,54.30
2018-05-02T10:06:39.451Z,53.80
2018-05-02T10:09:06.961Z,53.50
2018-05-02T10:11:34.451Z,52.20
2018-05-02T10:14:01.961Z,52.90
2018-05-02T10:16:29.449Z,52.10
2018-05-02T10:18:56.954Z,52.10
2018-05-02T10:21:24.461Z,51.90
2018-05-02T10:23:51.976Z,52.00
2018-05-02T10:26:19.463Z,52.10
2018-05-02T10:28:46.967Z,53.00
2018-05-02T10:31:14.453Z,52.90
2018-05-02T10:33:41.961Z,53.80
2018-05-02T10:36:09.448Z,53.30
2018-05-02T10:38:36.966Z,52.40
2018-05-02T10:41:04.458Z,53.00
2018-05-02T10:43:31.953Z,52.80
2018-05-02T10:45:59.465Z,53.00
2018-05-02T10:48:26.955Z,53.40
2018-05-02T10:50:54.458Z,52.20
2018-05-02T10:53:22.721Z,52.80
2018-05-02T10:55:50.296Z,52.70
2018-05-02T10:58:17.738Z,51.80
2018-05-02T11:00:45.250Z,52.40
2018-05-02T11:03:13.501Z,51.90
2018-05-02T11:05:41.013Z,51.90
2018-05-02T11:08:08.505Z,51.90
2018-05-02T11:10:36.011Z,51.00
2018-05-02T11:13:03.506Z,50.70
2018-05-02T11:15:31.008Z,51.20
2018-05-02T11:17:59.265Z,51.30
2018-05-02T11:20:26.771Z,51.20
2018-05-02T11:22:54.250Z,51.30
2018-05-02T11:25:21.756Z,51.30
2018-05-02T11:27:49.249Z,51.10
2018-05-02T11:30:16.757Z,51.00
2018-05-02T11:32:44.241Z,51.70
2018-05-02T11:35:11.749Z,49.70
2018-05-02T11:37:39.245Z,48.30
2018-05-02T11:40:06.757Z,49.20
2018-05-02T11:42:34.254Z,49.50
2018-05-02T11:45:01.770Z,48.50
2018-05-02T11:47:29.261Z,48.20
2018-05-02T11:49:56.762Z,48.60
2018-05-02T11:52:24.253Z,49.20
2018-05-02T11:54:51.761Z,48.60
2018-05-02T11:57:19.241Z,48.90
2018-05-02T11:59:46.746Z,48.10
2018-05-02T12:02:15.006Z,47.80
2018-05-02T12:04:42.516Z,47.70
2018-05-02T12:07:10.002Z,47.00
2018-05-02T12:09:37.532Z,46.70
2018-05-02T12:12:05.014Z,46.90
2018-05-02T12:14:32.493Z,46.00
2018-05-02T12:17:00.005Z,46.30
2018-05-02T12:19:27.492Z,45.10
2018-05-02T12:21:55.068Z,46.00
2018-05-02T12:24:22.505Z,46.40
2018-05-02T12:26:50.011Z,47.30
2018-05-02T12:29:17.501Z,46.80
2018-05-02T12:31:45.010Z,45.90
2018-05-02T12:34:12.493Z,45.70
2018-05-02T12:36:39.993Z,45.30
2018-05-02T12:39:08.236Z,45.50
2018-05-02T12:41:35.741Z,45.50
2018-05-02T12:44:03.224Z,45.10
2018-05-02T12:46:30.736Z,45.10
2018-05-02T12:48:58.222Z,45.50
2018-05-02T12:51:25.723Z,45.40
2018-05-02T12:53:53.200Z,45.50
2018-05-02T12:56:21.541Z,45.90
2018-05-02T12:58:48.978Z,45.90
2018-05-02T13:01:16.485Z,45.80
2018-05-02T13:03:43.976Z,46.50
2018-05-02T13:06:11.487Z,46.00
2018-05-02T13:08:38.975Z,46.20
2018-05-02T13:11:06.474Z,46.30
2018-05-02T13:13:33.958Z,45.70
2018-05-02T13:16:01.461Z,46.40
2018-05-02T13:18:28.949Z,47.40
2018-05-02T13:20:56.465Z,47.10
2018-05-02T13:23:23.982Z,47.30
2018-05-02T13:25:51.474Z,47.10
2018-05-02T13:28:18.961Z,47.40
2018-05-02T13:30:46.469Z,46.80
2018-05-02T13:33:13.954Z,47.60
2018-05-02T13:35:41.461Z,46.80
2018-05-02T13:38:08.941Z,47.40
2018-05-02T13:40:36.451Z,46.40
2018-05-02T13:43:03.959Z,47.10
2018-05-02T13:45:31.441Z,47.80
2018-05-02T13:47:58.949Z,47.30
2018-05-02T13:50:26.441Z,47.50
2018-05-02T13:52:53.953Z,47.00
2018-05-02T13:55:21.440Z,47.60
2018-05-02T13:57:48.947Z,47.90
2018-05-02T14:00:16.433Z,47.60
2018-05-02T14:02:43.942Z,47.30
2018-05-02T14:05:11.429Z,47.70
2018-05-02T14:07:38.930Z,47.70
2018-05-02T14:10:06.417Z,47.40
2018-05-02T14:12:33.926Z,47.40
2018-05-02T14:15:01.405Z,47.10
2018-05-02T14:17:28.906Z,48.00
2018-05-02T14:19:56.386Z,48.10
2018-05-02T14:22:23.889Z,47.40
2018-05-02T14:24:51.421Z,47.50
2018-05-02T14:27:18.896Z,47.10
2018-05-02T14:29:47.152Z,47.80
2018-05-02T14:32:15.653Z,47.80
2018-05-02T14:34:43.136Z,48.10
2018-05-02T14:37:10.642Z,48.60
2018-05-02T14:39:38.122Z,48.20
2018-05-02T14:42:05.624Z,48.00
2018-05-02T14:44:33.110Z,47.60
2018-05-02T14:47:00.609Z,47.00
2018-05-02T14:49:28.093Z,47.60
2018-05-02T14:51:55.601Z,46.80
2018-05-02T14:54:23.090Z,47.10
2018-05-02T14:56:50.594Z,46.10
2018-05-02T14:59:18.087Z,46.40
2018-05-02T15:01:45.589Z,45.80
2018-05-02T15:04:13.073Z,46.80
2018-05-02T15:06:40.565Z,47.10
2018-05-02T15:09:08.079Z,47.30
2018-05-02T15:11:35.558Z,48.20
2018-05-02T15:14:03.070Z,47.00
2018-05-02T15:16:30.553Z,46.50
2018-05-02T15:18:58.057Z,47.00
2018-05-02T15:21:25.549Z,47.60
2018-05-02T15:23:53.057Z,47.90
2018-05-02T15:26:20.536Z,47.40
2018-05-02T15:28:48.106Z,47.50
2018-05-02T15:31:15.593Z,47.30
2018-05-02T15:33:43.976Z,46.90
2018-05-02T15:36:11.462Z,46.90
2018-05-02T15:38:39.033Z,47.20
2018-05-02T15:41:06.533Z,47.20
2018-05-02T15:43:34.806Z,47.50
2018-05-02T15:46:02.290Z,47.50
2018-05-02T15:48:29.808Z,47.90
2018-05-02T15:50:57.303Z,48.00
2018-05-02T15:53:24.801Z,47.80
2018-05-02T15:55:52.312Z,47.70
2018-05-02T15:58:19.835Z,48.10
2018-05-02T16:00:47.318Z,48.10
2018-05-02T16:03:14.828Z,48.20
2018-05-02T16:05:42.305Z,48.70
2018-05-02T16:08:09.811Z,49.40
2018-05-02T16:10:37.296Z,48.40
2018-05-02T16:13:04.811Z,48.40
2018-05-02T16:15:32.318Z,48.90
2018-05-02T16:17:59.846Z,49.10
2018-05-02T16:20:27.339Z,48.90
2018-05-02T16:22:55.601Z,48.90
2018-05-02T16:25:23.101Z,48.80
2018-05-02T16:27:50.670Z,49.20
2018-05-02T16:30:18.107Z,49.30
2018-05-02T16:32:45.614Z,50.00
2018-05-02T16:35:13.127Z,49.70
2018-05-02T16:37:40.615Z,49.40
2018-05-02T16:40:08.121Z,49.30
2018-05-02T16:42:35.614Z,49.30
2018-05-02T16:45:03.140Z,49.90
2018-05-02T16:47:30.616Z,49.80
2018-05-02T16:49:58.121Z,50.20
2018-05-02T16:52:25.604Z,50.20
2018-05-02T16:54:53.112Z,50.10
2018-05-02T16:57:20.606Z,50.50
2018-05-02T16:59:48.113Z,50.20
2018-05-02T17:02:15.592Z,50.20
2018-05-02T17:04:43.209Z,49.70
2018-05-02T17:07:10.650Z,50.60
2018-05-02T17:09:38.152Z,51.10
2018-05-02T17:12:06.412Z,50.60
2018-05-02T17:14:33.918Z,50.60
2018-05-02T17:17:01.400Z,50.90
2018-05-02T17:19:28.914Z,50.90
2018-05-02T17:21:57.504Z,51.50
2018-05-02T17:24:24.943Z,51.50
2018-05-02T17:26:52.441Z,51.40
2018-05-02T17:29:19.950Z,51.70
2018-05-02T17:31:47.437Z,51.60
2018-05-02T17:34:15.068Z,51.90
2018-05-02T17:36:42.550Z,52.10
2018-05-02T17:39:10.069Z,52.10
2018-05-02T17:41:37.565Z,51.90
2018-05-02T17:44:05.074Z,52.10
2018-05-02T17:46:32.590Z,52.30
2018-05-02T17:49:00.071Z,52.70
2018-05-02T17:51:27.556Z,52.90
2018-05-02T17:53:55.073Z,53.40
2018-05-02T17:56:22.631Z,53.10
2018-05-02T17:58:50.880Z,53.40
2018-05-02T18:01:18.380Z,53.30
2018-05-02T18:03:45.881Z,53.60
2018-05-02T18:06:13.393Z,53.20
2018-05-02T18:08:40.885Z,53.40
2018-05-02T18:11:08.408Z,53.60
2018-05-02T18:13:35.891Z,54.10
2018-05-02T18:16:04.201Z,54.70
2018-05-02T18:18:31.670Z,54.70
2018-05-02T18:20:59.940Z,55.40
2018-05-02T18:23:27.421Z,55.40
2018-05-02T18:25:54.955Z,55.40
2018-05-02T18:28:22.445Z,55.80
2018-05-02T18:30:49.961Z,56.20
2018-05-02T18:33:17.448Z,56.50
2018-05-02T18:35:44.958Z,56.40
2018-05-02T18:38:12.441Z,56.20
2018-05-02T18:40:39.982Z,56.50
2018-05-02T18:43:07.448Z,56.60
2018-05-02T18:45:34.963Z,55.80
2018-05-02T18:48:02.467Z,56.10
2018-05-02T18:50:29.976Z,56.20
2018-05-02T18:52:57.462Z,56.60
2018-05-02T18:55:24.961Z,56.70
2018-05-02T18:57:52.457Z,57.10
2018-05-02T19:00:19.957Z,57.40
2018-05-02T19:02:47.442Z,57.60
2018-05-02T19:05:14.957Z,57.50
2018-05-02T19:07:42.469Z,57.60
2018-05-02T19:10:09.965Z,58.00
2018-05-02T19:12:37.447Z,58.30
2018-05-02T19:15:04.951Z,59.00
2018-05-02T19:17:32.434Z,59.20
2018-05-02T19:20:05.669Z,59.70
2018-05-02T19:22:33.155Z,60.00
2018-05-02T19:25:06.213Z,60.50
2018-05-02T19:27:33.698Z,60.20
2018-05-02T19:30:01.214Z,60.30
2018-05-02T19:32:34.385Z,61.00
2018-05-02T19:35:01.902Z,61.50
2018-05-02T19:37:29.393Z,61.50
2018-05-02T19:40:02.590Z,61.60
2018-05-02T19:42:35.776Z,61.80
2018-05-02T19:45:03.265Z,62.70
2018-05-02T19:47:30.774Z,63.00
2018-05-02T19:49:58.295Z,62.90
2018-05-02T19:52:31.341Z,63.30
2018-05-02T19:54:58.838Z,63.50
2018-05-02T19:57:26.353Z,63.50
2018-05-02T19:59:53.841Z,63.20
2018-05-02T20:02:27.025Z,63.60
2018-05-02T20:04:54.514Z,63.80
2018-05-02T20:07:42.598Z,64.00
2018-05-02T20:10:15.644Z,64.10
2018-05-02T20:12:48.681Z,65.20
2018-05-02T20:15:16.169Z,64.90
2018-05-02T20:17:43.675Z,65.10
2018-05-02T20:20:11.171Z,65.40
2018-05-02T20:22:38.712Z,65.50
2018-05-02T20:25:06.323Z,65.90
2018-05-02T20:27:33.829Z,65.60
2018-05-02T20:30:01.319Z,65.80
2018-05-02T20:32:28.830Z,65.90
2018-05-02T20:34:56.344Z,65.80
2018-05-02T20:37:23.857Z,65.80
2018-05-02T20:39:51.351Z,65.70
2018-05-02T20:42:18.857Z,65.60
2018-05-02T20:44:47.149Z,65.80
2018-05-02T20:47:14.699Z,65.70
2018-05-02T20:49:44.136Z,65.70
2018-05-02T20:52:11.744Z,65.70
2018-05-02T20:54:39.294Z,65.60
2018-05-02T20:57:06.805Z,65.30
2018-05-02T20:59:34.290Z,65.40
2018-05-02T21:02:01.809Z,65.20
2018-05-02T21:04:29.311Z,65.10
2018-05-02T21:06:56.818Z,65.10
2018-05-02T21:09:25.074Z,64.90
2018-05-02T21:11:52.646Z,64.80
2018-05-02T21:14:20.208Z,64.70
2018-05-02T21:16:47.826Z,64.20
2018-05-02T21:19:15.334Z,63.70
2018-05-02T21:21:42.820Z,63.40
2018-05-02T21:24:10.341Z,63.30
2018-05-02T21:26:37.838Z,63.30
2018-05-02T21:29:05.353Z,63.40
2018-05-02T21:31:32.838Z,63.00
2018-05-02T21:34:00.353Z,63.00
2018-05-02T21:36:27.849Z,62.70
2018-05-02T21:38:55.357Z,62.80
2018-05-02T21:41:22.875Z,62.20
2018-05-02T21:43:50.386Z,62.50
2018-05-02T21:46:17.870Z,61.80
2018-05-02T21:48:45.379Z,61.90
2018-05-02T21:51:12.881Z,61.80
2018-05-02T21:53:40.393Z,61.60
2018-05-02T21:56:07.877Z,61.60
2018-05-02T21:58:35.385Z,61.50
2018-05-02T22:01:02.880Z,61.60
2018-05-02T22:03:30.385Z,61.80
2018-05-02T22:05:57.868Z,61.40
2018-05-02T22:08:25.374Z,61.20
2018-05-02T22:10:52.913Z,61.40
2018-05-02T22:13:20.427Z,61.90
2018-05-02T22:15:47.913Z,62.20
2018-05-02T22:18:15.401Z,61.90
2018-05-02T22:20:42.909Z,62.00
2018-05-02T22:23:10.397Z,61.80
2018-05-02T22:25:37.901Z,62.20
2018-05-02T22:28:05.456Z,62.50
2018-05-02T22:30:32.905Z,62.80
2018-05-02T22:33:01.165Z,62.90
2018-05-02T22:35:28.688Z,62.80
2018-05-02T22:37:56.176Z,62.40
2018-05-02T22:40:23.680Z,62.40
2018-05-02T22:42:51.165Z,62.70
2018-05-02T22:45:18.668Z,62.70
2018-05-02T22:47:46.150Z,62.90
2018-05-02T22:50:13.657Z,62.80
2018-05-02T22:52:41.148Z,63.10
2018-05-02T22:55:08.670Z,63.30
2018-05-02T22:57:36.152Z,63.30
2018-05-02T23:00:03.670Z,63.50
2018-05-02T23:02:31.211Z,63.60
2018-05-02T23:04:58.669Z,63.90
2018-05-02T23:07:26.153Z,63.90
2018-05-02T23:09:53.661Z,64.00
2018-05-02T23:12:21.161Z,64.10
2018-05-02T23:14:48.660Z,64.30
2018-05-02T23:17:16.144Z,64.30
2018-05-02T23:19:43.677Z,64.90
2018-05-02T23:22:11.171Z,65.10
2018-05-02T23:24:38.659Z,65.20
2018-05-02T23:27:06.165Z,65.40
2018-05-02T23:29:33.657Z,65.40
2018-05-02T23:32:01.165Z,65.60
2018-05-02T23:34:28.665Z,65.80
2018-05-02T23:36:56.185Z,66.10
2018-05-02T23:39:23.683Z,66.20
2018-05-02T23:41:51.185Z,66.30
2018-05-02T23:44:18.669Z,66.80
2018-05-02T23:46:46.180Z,66.80
2018-05-02T23:49:13.676Z,67.20
2018-05-02T23:51:41.177Z,67.10
2018-05-02T23:54:08.667Z,67.00
2018-05-02T23:56:36.164Z,67.20
2018-05-02T23:59:03.652Z,67.50
